Time;durP1;ratioP1;P1;durP2;ratioP2;P2;SDS_P1;SDS_P2;PMS_P1;PMS_P2;Temp;Humidity;BMP_temperature;BMP_pressure;BME280_temperature;BME280_humidity;BME280_pressure;Samples;Min_cycle;Max_cycle;Signal;HPM_P1;HPM_P2
2023/09/16 00:00:32;;;;;;;4.57;3.10;;;17.30;74.20;;;;;;5114361;28;20087;-34
2023/09/16 00:02:58;;;;;;;4.90;3.40;;;17.40;74.30;;;;;;5113921;28;20020;-35
2023/09/16 00:05:24;;;;;;;4.43;3.30;;;17.40;74.50;;;;;;5095583;28;20028;-39
2023/09/16 00:07:50;;;;;;;6.03;3.33;;;17.30;74.50;;;;;;5095658;28;20016;-37
2023/09/16 00:10:15;;;;;;;4.97;3.50;;;17.30;74.60;;;;;;5113630;28;20051;-35
2023/09/16 00:12:41;;;;;;;4.22;3.08;;;17.30;74.70;;;;;;5114120;28;20358;-35
2023/09/16 00:15:07;;;;;;;4.53;3.50;;;17.30;74.80;;;;;;5113692;28;20090;-35
2023/09/16 00:17:33;;;;;;;5.70;3.63;;;17.30;74.80;;;;;;5113909;28;20024;-35
2023/09/16 00:19:59;;;;;;;5.63;3.60;;;17.30;74.90;;;;;;5113704;28;20011;-35
2023/09/16 00:22:24;;;;;;;5.10;3.80;;;17.30;75.10;;;;;;5113729;28;20045;-36
2023/09/16 00:24:52;;;;;;;4.95;3.30;;;17.30;75.10;;;;;;5113813;28;20534;-35
2023/09/16 00:27:18;;;;;;;4.82;3.38;;;17.30;75.20;;;;;;5113382;28;20416;-36
2023/09/16 00:29:43;;;;;;;4.88;3.80;;;17.30;75.30;;;;;;5113677;28;20026;-35
2023/09/16 00:32:09;;;;;;;5.57;3.40;;;17.30;75.30;;;;;;5113464;28;20054;-36
2023/09/16 00:34:35;;;;;;;4.78;3.38;;;17.30;75.30;;;;;;5113355;28;20034;-32
2023/09/16 00:37:01;;;;;;;5.97;3.25;;;17.30;75.40;;;;;;5113691;28;20015;-36
2023/09/16 00:39:26;;;;;;;4.88;3.35;;;17.30;75.50;;;;;;5113263;28;20102;-34
2023/09/16 00:41:52;;;;;;;7.15;3.75;;;17.30;76.20;;;;;;5094722;28;20031;-35
2023/09/16 00:44:17;;;;;;;4.60;3.28;;;17.30;75.60;;;;;;5113071;28;20069;-33
2023/09/16 00:46:43;;;;;;;4.22;3.70;;;17.20;75.60;;;;;;5112998;28;20027;-34
2023/09/16 00:49:09;;;;;;;7.07;3.55;;;17.30;75.70;;;;;;5113105;28;20034;-36
2023/09/16 00:51:34;;;;;;;4.43;3.40;;;17.30;75.80;;;;;;5112878;28;20464;-35
2023/09/16 00:54:01;;;;;;;3.97;3.45;;;17.30;75.80;;;;;;5113171;28;20020;-36
2023/09/16 00:56:29;;;;;;;3.72;3.33;;;17.30;75.80;;;;;;5112867;28;20011;-36
2023/09/16 00:58:57;;;;;;;4.78;3.47;;;17.30;75.80;;;;;;5113110;28;20469;-35
2023/09/16 01:01:24;;;;;;;4.18;3.35;;;17.30;75.80;;;;;;5112943;28;20094;-36
2023/09/16 01:03:50;;;;;;;5.60;3.38;;;17.30;75.90;;;;;;5112685;28;20098;-36
2023/09/16 01:06:16;;;;;;;5.65;3.80;;;17.30;75.90;;;;;;5112564;28;20040;-36
2023/09/16 01:08:44;;;;;;;5.10;3.90;;;17.40;76.00;;;;;;5112778;28;20055;-35
2023/09/16 01:11:10;;;;;;;4.90;4.15;;;17.30;76.00;;;;;;5112637;28;20422;-40
2023/09/16 01:13:37;;;;;;;5.07;3.60;;;17.30;76.10;;;;;;5112798;28;20030;-35
2023/09/16 01:16:30;;;;;;;5.20;3.67;;;17.40;76.20;;;;;;5112761;28;20102;-36
2023/09/16 01:19:22;;;;;;;6.07;3.77;;;17.30;76.20;;;;;;5112539;28;20530;-34
2023/09/16 01:21:48;;;;;;;4.60;3.80;;;17.30;76.10;;;;;;5111663;28;20288;-35
2023/09/16 01:24:23;;;;;;;6.93;4.25;;;17.40;76.20;;;;;;5112709;28;20015;-35
2023/09/16 01:26:49;;;;;;;6.07;4.32;;;17.40;76.30;;;;;;5112133;28;20110;-35
2023/09/16 01:29:16;;;;;;;6.15;4.28;;;17.30;76.20;;;;;;5112225;28;20115;-44
2023/09/16 01:31:43;;;;;;;6.25;3.88;;;17.40;76.40;;;;;;5112031;28;20031;-36
2023/09/16 01:34:24;;;;;;;6.05;4.10;;;17.30;77.00;;;;;;5112119;28;20020;-36
2023/09/16 01:36:56;;;;;;;5.03;4.07;;;17.30;76.50;;;;;;5112274;28;20016;-36
2023/09/16 01:39:23;;;;;;;5.00;3.95;;;17.30;76.60;;;;;;5112116;28;20611;-35
2023/09/16 01:41:54;;;;;;;4.47;4.00;;;17.30;76.60;;;;;;5112292;28;20027;-35
2023/09/16 01:44:19;;;;;;;6.95;4.15;;;17.30;76.70;;;;;;5112054;28;20037;-35
2023/09/16 01:46:45;;;;;;;6.97;4.60;;;17.30;76.80;;;;;;5111942;28;20118;-35
2023/09/16 01:49:10;;;;;;;6.97;3.97;;;17.20;76.80;;;;;;5112035;28;20027;-36
2023/09/16 01:51:36;;;;;;;5.97;4.07;;;17.20;76.90;;;;;;5112075;28;20023;-35
2023/09/16 01:54:01;;;;;;;5.97;3.90;;;17.20;77.00;;;;;;5112132;28;20024;-34
2023/09/16 01:56:27;;;;;;;6.50;4.40;;;17.10;77.00;;;;;;5112067;28;20023;-36
2023/09/16 01:58:53;;;;;;;6.55;4.55;;;17.10;77.10;;;;;;5111879;28;20020;-35
2023/09/16 02:01:18;;;;;;;6.57;4.35;;;17.10;77.20;;;;;;5093358;28;20027;-36
2023/09/16 02:03:44;;;;;;;7.13;4.53;;;17.10;77.30;;;;;;5112250;28;20380;-34
2023/09/16 02:06:09;;;;;;;5.45;4.50;;;17.00;77.20;;;;;;5112282;28;20031;-35
2023/09/16 02:08:35;;;;;;;7.20;4.90;;;17.00;77.40;;;;;;5111861;28;20502;-34
2023/09/16 02:11:01;;;;;;;6.97;4.85;;;17.00;77.50;;;;;;5111914;28;20023;-35
2023/09/16 02:13:27;;;;;;;5.65;4.32;;;17.00;77.60;;;;;;5111691;28;20026;-35
2023/09/16 02:15:52;;;;;;;6.90;4.60;;;17.00;77.60;;;;;;5111770;28;20102;-42
2023/09/16 02:18:18;;;;;;;7.13;5.20;;;17.00;77.70;;;;;;5112041;28;20496;-36
2023/09/16 02:20:43;;;;;;;5.70;4.55;;;16.90;77.70;;;;;;5115798;28;20477;-34
2023/09/16 02:23:09;;;;;;;5.28;4.68;;;16.90;77.80;;;;;;5097385;28;20485;-34
2023/09/16 02:25:35;;;;;;;5.93;4.88;;;16.90;77.90;;;;;;5116156;28;20103;-35
2023/09/16 02:28:01;;;;;;;6.78;5.10;;;16.90;78.00;;;;;;5115773;28;20039;-36
2023/09/16 02:30:27;;;;;;;6.25;5.13;;;16.80;78.00;;;;;;5115789;28;20028;-35
2023/09/16 02:32:52;;;;;;;6.20;4.82;;;16.80;78.10;;;;;;5115785;28;20020;-35
2023/09/16 02:35:18;;;;;;;6.82;5.32;;;16.80;78.10;;;;;;5115835;28;20020;-35
2023/09/16 02:37:43;;;;;;;7.18;5.05;;;16.80;78.10;;;;;;5115564;28;20059;-35
2023/09/16 02:40:09;;;;;;;7.15;4.82;;;16.70;78.20;;;;;;5115565;28;20030;-34
2023/09/16 02:42:35;;;;;;;7.22;5.07;;;16.70;78.20;;;;;;5115556;28;20303;-34
2023/09/16 02:45:01;;;;;;;8.05;5.13;;;16.70;78.30;;;;;;5115649;28;20102;-44
2023/09/16 02:47:26;;;;;;;12.38;5.60;;;16.60;78.30;;;;;;5115673;28;20024;-35
2023/09/16 02:49:52;;;;;;;5.90;4.65;;;16.70;78.40;;;;;;5097238;28;20031;-34
2023/09/16 02:52:20;;;;;;;7.53;5.13;;;16.60;78.40;;;;;;5115397;28;20031;-35
2023/09/16 02:54:45;;;;;;;7.55;5.57;;;16.60;78.50;;;;;;5115149;28;20016;-34
2023/09/16 02:57:11;;;;;;;7.13;5.45;;;16.60;78.50;;;;;;5115126;28;20020;-35
2023/09/16 02:59:37;;;;;;;6.93;5.47;;;16.60;78.70;;;;;;5115246;28;20055;-35
2023/09/16 03:02:03;;;;;;;7.50;5.53;;;16.50;78.70;;;;;;5115190;28;20024;-35
2023/09/16 03:04:29;;;;;;;7.50;5.30;;;16.50;78.80;;;;;;5097045;28;20026;-34
2023/09/16 03:06:54;;;;;;;7.78;5.72;;;16.50;78.80;;;;;;5097291;28;20024;-35
2023/09/16 03:09:20;;;;;;;7.28;5.38;;;16.50;78.90;;;;;;5115614;28;20019;-35
2023/09/16 03:11:46;;;;;;;8.40;5.97;;;16.50;79.00;;;;;;5115155;28;20338;-35
2023/09/16 03:14:11;;;;;;;7.38;5.35;;;16.40;79.00;;;;;;5114968;28;20523;-35
2023/09/16 03:16:37;;;;;;;6.32;5.50;;;16.50;79.10;;;;;;5114903;28;20092;-36
2023/09/16 03:19:03;;;;;;;6.53;5.57;;;16.40;79.10;;;;;;5114702;28;20411;-35
2023/09/16 03:21:29;;;;;;;7.68;5.13;;;16.40;79.10;;;;;;5115001;28;20023;-35
2023/09/16 03:23:54;;;;;;;8.50;5.60;;;16.40;79.10;;;;;;5114917;28;20384;-36
2023/09/16 03:26:20;;;;;;;6.40;5.25;;;16.40;79.20;;;;;;5115027;28;20027;-36
2023/09/16 03:28:46;;;;;;;6.90;5.43;;;16.40;79.30;;;;;;5114545;28;20043;-35
2023/09/16 03:31:12;;;;;;;7.05;5.18;;;16.40;79.30;;;;;;5114203;28;20092;-36
2023/09/16 03:33:38;;;;;;;9.20;5.78;;;16.30;79.30;;;;;;5114495;28;20024;-34
2023/09/16 03:36:04;;;;;;;6.72;5.65;;;16.40;79.30;;;;;;5114598;28;20024;-35
2023/09/16 03:38:31;;;;;;;7.10;5.55;;;16.40;79.40;;;;;;5114679;28;20055;-37
2023/09/16 03:40:58;;;;;;;6.78;5.47;;;16.30;79.40;;;;;;5114239;28;20026;-36
2023/09/16 03:43:24;;;;;;;6.82;5.85;;;16.30;79.40;;;;;;5114391;28;20027;-36
2023/09/16 03:45:50;;;;;;;9.13;6.22;;;16.30;79.40;;;;;;5114091;28;20032;-35
2023/09/16 03:48:15;;;;;;;7.00;5.82;;;16.30;79.50;;;;;;5114545;28;20316;-35
2023/09/16 03:50:41;;;;;;;7.55;6.10;;;16.30;79.50;;;;;;5114379;28;20026;-35
2023/09/16 03:53:07;;;;;;;6.80;5.65;;;16.30;79.60;;;;;;5113951;28;20020;-34
2023/09/16 03:55:33;;;;;;;9.32;6.05;;;16.30;79.60;;;;;;5114178;28;20387;-34
2023/09/16 03:58:00;;;;;;;7.10;5.80;;;16.20;79.70;;;;;;5114462;28;20414;-36
2023/09/16 04:00:26;;;;;;;8.60;6.03;;;16.20;79.70;;;;;;5114073;28;20030;-33
2023/09/16 04:02:52;;;;;;;9.82;5.95;;;16.20;79.70;;;;;;5114423;28;20508;-35
2023/09/16 04:05:17;;;;;;;9.90;6.15;;;16.20;79.80;;;;;;5114064;28;20028;-35
2023/09/16 04:07:43;;;;;;;6.80;5.40;;;16.20;79.90;;;;;;5113940;28;20520;-36
2023/09/16 04:10:08;;;;;;;7.28;5.38;;;16.20;79.90;;;;;;5113777;28;20477;-35
2023/09/16 04:12:34;;;;;;;8.52;5.40;;;16.20;79.90;;;;;;5113988;28;20101;-44
2023/09/16 04:15:00;;;;;;;6.32;5.18;;;16.20;80.00;;;;;;5113896;28;20019;-36
2023/09/16 04:17:28;;;;;;;8.93;5.15;;;16.20;80.00;;;;;;5113754;28;20026;-34
2023/09/16 04:19:53;;;;;;;6.22;5.35;;;16.20;80.00;;;;;;5113550;28;20069;-36
2023/09/16 04:22:19;;;;;;;7.28;5.80;;;16.20;80.00;;;;;;5113415;28;20028;-35
2023/09/16 04:24:45;;;;;;;8.43;5.68;;;16.20;80.00;;;;;;5113807;28;20104;-36
2023/09/16 04:27:11;;;;;;;6.85;5.70;;;16.20;80.10;;;;;;5113728;28;20046;-36
2023/09/16 04:29:36;;;;;;;8.23;5.45;;;16.10;80.00;;;;;;5113394;28;20019;-35
2023/09/16 04:32:02;;;;;;;6.50;5.20;;;16.20;80.10;;;;;;5113547;28;20031;-45
2023/09/16 04:34:28;;;;;;;7.47;5.68;;;16.10;80.10;;;;;;5112784;28;20051;-34
2023/09/16 04:36:55;;;;;;;7.78;5.68;;;16.10;80.10;;;;;;5113583;28;20071;-35
2023/09/16 04:39:23;;;;;;;9.10;6.13;;;16.10;80.20;;;;;;5113618;28;20435;-40
2023/09/16 04:41:54;;;;;;;8.15;6.07;;;16.10;80.20;;;;;;5112485;28;20024;-36
2023/09/16 04:44:21;;;;;;;7.25;5.90;;;16.10;80.20;;;;;;5112974;28;20027;-35
2023/09/16 04:46:46;;;;;;;8.95;5.95;;;16.10;80.30;;;;;;5113330;28;20032;-36
2023/09/16 04:49:12;;;;;;;7.25;6.45;;;16.10;80.30;;;;;;5113393;28;20054;-35
2023/09/16 04:51:38;;;;;;;7.78;6.88;;;16.10;80.40;;;;;;5113162;28;20385;-34
2023/09/16 04:54:05;;;;;;;8.55;6.45;;;16.10;80.40;;;;;;5094631;28;20114;-35
2023/09/16 04:56:30;;;;;;;8.07;7.00;;;16.10;80.50;;;;;;5112978;28;20027;-45
2023/09/16 04:58:56;;;;;;;9.75;7.10;;;16.00;80.50;;;;;;5112917;28;20093;-35
2023/09/16 05:01:22;;;;;;;9.02;7.68;;;16.10;80.60;;;;;;5112959;28;20103;-36
2023/09/16 05:03:47;;;;;;;8.93;7.20;;;16.00;80.60;;;;;;5112903;28;20061;-36
2023/09/16 05:06:13;;;;;;;10.10;6.93;;;16.00;80.70;;;;;;5112975;28;20174;-33
2023/09/16 05:08:38;;;;;;;9.50;6.97;;;16.00;80.70;;;;;;5112793;28;20538;-36
2023/09/16 05:11:04;;;;;;;8.70;7.35;;;16.00;80.80;;;;;;5112866;28;20023;-34
2023/09/16 05:13:30;;;;;;;10.82;7.95;;;16.00;80.80;;;;;;5112547;28;20032;-35
2023/09/16 05:15:55;;;;;;;10.77;7.40;;;16.00;80.90;;;;;;5112505;28;20072;-34
2023/09/16 05:18:21;;;;;;;9.20;7.25;;;16.00;80.90;;;;;;5112381;28;20016;-33
2023/09/16 05:20:50;;;;;;;8.15;6.68;;;16.00;80.90;;;;;;5112574;28;20115;-34
2023/09/16 05:23:16;;;;;;;8.30;7.00;;;16.00;81.00;;;;;;5112734;28;20445;-34
2023/09/16 05:25:51;;;;;;;10.32;6.78;;;16.00;81.00;;;;;;5112590;28;20024;-45
2023/09/16 05:28:17;;;;;;;9.55;6.97;;;16.00;81.70;;;;;;5112159;28;20043;-36
2023/09/16 05:30:43;;;;;;;10.20;7.22;;;16.00;81.00;;;;;;5112493;28;20358;-36
2023/09/16 05:33:12;;;;;;;8.48;6.35;;;16.00;81.00;;;;;;5112519;28;20024;-35
2023/09/16 05:35:41;;;;;;;7.90;6.70;;;16.10;81.00;;;;;;5112433;28;20016;-36
2023/09/16 05:38:08;;;;;;;8.25;6.38;;;16.10;81.00;;;;;;5112182;28;20043;-35
2023/09/16 05:40:36;;;;;;;8.18;6.65;;;16.10;81.10;;;;;;5112467;28;20499;-36
2023/09/16 05:43:01;;;;;;;10.50;7.10;;;16.10;81.10;;;;;;5112503;28;20042;-36
2023/09/16 05:45:27;;;;;;;9.07;7.13;;;16.10;81.10;;;;;;5112164;28;20035;-34
2023/09/16 05:47:52;;;;;;;8.05;6.80;;;16.00;81.00;;;;;;5112570;28;20046;-37
2023/09/16 05:50:18;;;;;;;9.57;7.20;;;16.10;81.10;;;;;;5112324;28;20024;-34
2023/09/16 05:52:44;;;;;;;10.75;7.03;;;16.00;81.10;;;;;;5112179;28;20020;-36
2023/09/16 05:55:09;;;;;;;8.15;7.30;;;16.10;81.20;;;;;;5112050;28;20099;-36
2023/09/16 05:57:35;;;;;;;8.45;7.22;;;16.10;81.20;;;;;;5112147;28;20106;-37
2023/09/16 06:00:01;;;;;;;7.07;6.38;;;16.10;81.20;;;;;;5112047;28;20099;-43
2023/09/16 06:02:27;;;;;;;9.02;7.07;;;16.10;81.20;;;;;;5111806;28;20437;-38
2023/09/16 06:04:53;;;;;;;9.52;6.82;;;16.20;81.20;;;;;;5112017;28;20015;-37
2023/09/16 06:07:18;;;;;;;7.65;6.32;;;16.20;81.30;;;;;;5112068;28;20427;-33
2023/09/16 06:09:44;;;;;;;7.53;6.13;;;16.20;81.20;;;;;;5112073;28;20027;-34
2023/09/16 06:12:09;;;;;;;8.98;7.03;;;16.20;81.30;;;;;;5111639;28;20410;-35
2023/09/16 06:14:35;;;;;;;8.98;6.43;;;16.20;81.10;;;;;;5112266;28;20358;-35
2023/09/16 06:17:01;;;;;;;9.05;6.95;;;16.30;81.10;;;;;;5111871;28;20031;-36
2023/09/16 06:19:28;;;;;;;10.40;6.70;;;16.30;81.10;;;;;;5111869;28;20428;-35
2023/09/16 06:21:55;;;;;;;7.95;6.70;;;16.30;81.10;;;;;;5111848;28;20016;-34
2023/09/16 06:24:21;;;;;;;8.60;6.22;;;16.40;81.00;;;;;;5111519;28;20027;-42
2023/09/16 06:26:47;;;;;;;8.52;6.47;;;16.40;81.00;;;;;;5111978;28;20039;-34
2023/09/16 06:29:12;;;;;;;8.57;6.60;;;16.40;81.00;;;;;;5111998;28;20380;-35
2023/09/16 06:31:38;;;;;;;7.65;6.85;;;16.50;80.90;;;;;;5111897;28;20631;-34
2023/09/16 06:34:05;;;;;;;8.55;6.20;;;16.50;80.90;;;;;;5111861;28;20546;-35
2023/09/16 06:36:31;;;;;;;6.97;6.15;;;16.50;80.90;;;;;;5111782;28;20020;-43
2023/09/16 06:38:57;;;;;;;8.02;6.20;;;16.50;81.10;;;;;;5111421;28;20038;-34
2023/09/16 06:41:22;;;;;;;8.32;6.07;;;16.60;80.90;;;;;;5111492;28;20036;-36
2023/09/16 06:43:48;;;;;;;7.38;5.80;;;16.60;80.80;;;;;;5111873;28;20020;-35
2023/09/16 06:46:13;;;;;;;7.00;6.30;;;16.70;80.80;;;;;;5111368;28;20477;-35
2023/09/16 06:48:39;;;;;;;7.95;5.93;;;16.70;81.30;;;;;;5111821;28;20023;-36
2023/09/16 06:51:05;;;;;;;6.55;5.88;;;16.80;80.70;;;;;;5111444;28;20174;-36
2023/09/16 06:53:31;;;;;;;7.43;5.72;;;16.80;80.70;;;;;;5111301;28;20020;-45
2023/09/16 06:55:57;;;;;;;7.25;5.70;;;16.90;80.60;;;;;;5111523;28;20073;-35
2023/09/16 06:58:23;;;;;;;6.55;5.25;;;16.90;80.60;;;;;;5111424;28;20019;-35
2023/09/16 07:00:48;;;;;;;6.43;5.30;;;17.00;81.10;;;;;;5111336;28;20016;-37
2023/09/16 07:03:14;;;;;;;6.30;5.28;;;17.10;80.40;;;;;;5111403;28;20024;-35
2023/09/16 07:05:45;;;;;;;6.20;5.40;;;17.10;80.30;;;;;;5113813;28;20059;-35
2023/09/16 07:08:10;;;;;;;7.72;5.82;;;17.20;80.20;;;;;;5115145;28;20035;-36
2023/09/16 07:10:36;;;;;;;6.80;5.80;;;17.20;80.10;;;;;;5114886;28;20090;-36
2023/09/16 07:13:02;;;;;;;8.10;5.57;;;17.30;80.00;;;;;;5115038;28;20034;-37
2023/09/16 07:15:27;;;;;;;8.10;5.18;;;17.40;79.90;;;;;;5114893;28;20019;-35
2023/09/16 07:17:53;;;;;;;6.72;5.10;;;17.50;79.90;;;;;;5115026;28;20715;-37
2023/09/16 07:20:18;;;;;;;6.55;4.82;;;17.60;79.70;;;;;;5114696;28;20062;-36
2023/09/16 07:22:44;;;;;;;6.80;4.85;;;17.60;79.60;;;;;;5114796;28;20023;-36
2023/09/16 07:25:10;;;;;;;6.15;4.97;;;17.70;79.50;;;;;;5114991;28;20019;-36
2023/09/16 07:27:35;;;;;;;6.43;4.70;;;17.80;79.40;;;;;;5114601;28;20568;-36
2023/09/16 07:30:01;;;;;;;6.28;4.78;;;17.80;79.20;;;;;;5114629;28;20108;-35
2023/09/16 07:32:27;;;;;;;5.85;4.53;;;17.90;79.10;;;;;;5114507;28;20094;-35
2023/09/16 07:34:54;;;;;;;5.53;4.53;;;18.00;79.10;;;;;;5114954;28;20107;-35
2023/09/16 07:37:19;;;;;;;6.00;4.55;;;18.10;78.90;;;;;;5114605;28;20078;-35
2023/09/16 07:39:46;;;;;;;7.80;5.10;;;18.10;78.80;;;;;;5114832;28;20242;-34
2023/09/16 07:42:11;;;;;;;6.47;4.80;;;18.20;78.70;;;;;;5095967;28;20015;-44
2023/09/16 07:44:37;;;;;;;6.18;4.70;;;18.20;78.50;;;;;;5114457;28;20039;-35
2023/09/16 07:47:03;;;;;;;4.85;4.32;;;18.30;78.50;;;;;;5114214;28;20507;-36
2023/09/16 07:49:28;;;;;;;6.25;4.43;;;18.40;78.40;;;;;;5096052;28;20088;-36
2023/09/16 07:51:54;;;;;;;6.07;5.05;;;18.40;78.30;;;;;;5114289;28;20035;-35
2023/09/16 07:54:20;;;;;;;5.55;4.80;;;18.50;78.10;;;;;;5114064;28;20020;-36
2023/09/16 07:56:45;;;;;;;6.05;4.38;;;18.60;78.10;;;;;;5114171;28;20068;-35
2023/09/16 07:59:11;;;;;;;6.40;4.78;;;18.60;78.00;;;;;;5114114;28;20022;-35
2023/09/16 08:01:36;;;;;;;6.18;4.80;;;18.60;77.90;;;;;;5095467;28;20465;-39
2023/09/16 08:04:02;;;;;;;5.43;4.75;;;18.70;77.90;;;;;;5114079;28;20030;-36
2023/09/16 08:06:27;;;;;;;5.72;4.75;;;18.70;77.80;;;;;;5114114;28;20077;-34
2023/09/16 08:08:54;;;;;;;5.38;4.70;;;18.70;77.80;;;;;;5113984;28;20031;-34
2023/09/16 08:11:19;;;;;;;5.63;4.93;;;18.80;77.70;;;;;;5113568;28;20027;-35
2023/09/16 08:13:46;;;;;;;6.65;5.10;;;18.90;77.60;;;;;;5113875;28;20027;-35
2023/09/16 08:16:11;;;;;;;5.57;4.97;;;19.10;77.40;;;;;;5113037;28;20023;-36
2023/09/16 08:18:37;;;;;;;6.07;5.25;;;19.30;77.10;;;;;;5095353;28;20111;-37
2023/09/16 08:21:02;;;;;;;5.68;4.57;;;19.40;76.80;;;;;;5113731;28;20020;-37
2023/09/16 08:23:28;;;;;;;6.30;5.13;;;19.60;76.50;;;;;;5113397;28;20019;-40
2023/09/16 08:25:54;;;;;;;6.82;4.90;;;19.80;76.30;;;;;;5113959;28;20057;-35
2023/09/16 08:28:19;;;;;;;6.32;4.57;;;20.00;76.00;;;;;;5113547;28;20063;-35
2023/09/16 08:30:45;;;;;;;5.18;4.63;;;20.10;75.70;;;;;;5113381;28;20392;-35
2023/09/16 08:33:11;;;;;;;4.75;4.18;;;20.30;75.50;;;;;;5113692;28;20031;-35
2023/09/16 08:35:36;;;;;;;5.32;4.72;;;20.40;75.20;;;;;;5113481;28;20453;-35
2023/09/16 08:38:02;;;;;;;5.57;4.25;;;20.60;74.90;;;;;;5113432;28;20030;-36
2023/09/16 08:40:31;;;;;;;4.97;4.47;;;20.60;74.60;;;;;;5113467;28;20423;-35
2023/09/16 08:43:02;;;;;;;4.65;4.15;;;20.70;74.30;;;;;;5113624;28;20079;-35
2023/09/16 08:45:32;;;;;;;4.85;4.22;;;20.90;74.00;;;;;;5113051;28;20111;-35
2023/09/16 08:48:02;;;;;;;4.68;4.13;;;21.00;73.70;;;;;;5113384;28;20024;-35
2023/09/16 08:50:30;;;;;;;6.03;4.35;;;21.00;73.50;;;;;;5113107;28;20059;-35
2023/09/16 08:53:02;;;;;;;4.90;4.20;;;21.10;73.30;;;;;;5113436;28;20023;-35
2023/09/16 08:55:27;;;;;;;5.03;3.78;;;21.10;73.20;;;;;;5113114;28;20040;-34
2023/09/16 08:58:04;;;;;;;6.03;3.80;;;21.10;73.10;;;;;;5113080;28;20039;-36
2023/09/16 09:00:30;;;;;;;3.95;3.55;;;21.10;73.00;;;;;;5112705;28;20031;-39
2023/09/16 09:02:55;;;;;;;5.53;4.28;;;21.10;72.90;;;;;;5113252;28;20032;-34
2023/09/16 09:05:25;;;;;;;6.22;3.95;;;21.10;72.90;;;;;;5113223;28;20385;-36
2023/09/16 09:07:51;;;;;;;5.10;3.50;;;21.10;72.70;;;;;;5112900;28;20032;-36
2023/09/16 09:10:17;;;;;;;5.28;3.50;;;21.10;72.70;;;;;;5112857;28;20034;-36
2023/09/16 09:12:43;;;;;;;4.65;3.80;;;21.10;72.60;;;;;;5112718;28;20123;-36
2023/09/16 09:15:14;;;;;;;5.35;3.35;;;21.20;72.30;;;;;;5112524;28;20481;-34
2023/09/16 09:17:50;;;;;;;4.43;3.40;;;21.30;72.70;;;;;;5112801;28;20017;-35
2023/09/16 09:20:21;;;;;;;5.15;3.22;;;21.30;71.80;;;;;;5112455;28;20030;-37
2023/09/16 09:22:49;;;;;;;4.38;3.40;;;21.40;71.60;;;;;;5112839;28;20027;-36
2023/09/16 09:25:22;;;;;;;6.82;3.67;;;21.40;71.50;;;;;;5112369;28;20028;-35
2023/09/16 09:27:49;;;;;;;5.75;3.70;;;21.50;71.40;;;;;;5112088;28;20044;-35
2023/09/16 09:30:14;;;;;;;4.57;3.83;;;21.50;71.40;;;;;;5112686;28;20072;-36
2023/09/16 09:32:44;;;;;;;3.60;3.30;;;21.60;71.30;;;;;;5112451;28;20520;-36
2023/09/16 09:35:11;;;;;;;4.95;3.38;;;21.70;71.10;;;;;;5112271;28;20023;-37
2023/09/16 09:37:37;;;;;;;4.72;3.22;;;21.70;70.90;;;;;;5112568;28;20056;-34
2023/09/16 09:40:10;;;;;;;4.85;3.67;;;21.80;70.80;;;;;;5112316;28;20038;-37
2023/09/16 09:42:44;;;;;;;4.90;4.03;;;21.90;70.60;;;;;;5112523;28;20499;-36
2023/09/16 09:45:10;;;;;;;5.15;3.78;;;21.90;70.60;;;;;;5112431;28;20023;-36
2023/09/16 09:47:40;;;;;;;4.20;3.80;;;22.00;70.40;;;;;;5111577;28;20120;-36
2023/09/16 09:50:10;;;;;;;4.55;3.30;;;22.00;70.10;;;;;;5112238;28;20016;-39
2023/09/16 09:52:36;;;;;;;5.78;3.50;;;22.10;70.10;;;;;;5112326;28;20053;-33
2023/09/16 09:55:02;;;;;;;4.00;3.10;;;22.20;69.90;;;;;;5112618;28;20423;-36
2023/09/16 09:57:28;;;;;;;4.82;3.05;;;22.30;69.80;;;;;;5112206;28;20063;-35
2023/09/16 09:59:55;;;;;;;5.05;3.47;;;22.30;69.40;;;;;;5111959;28;20112;-37
2023/09/16 10:02:27;;;;;;;3.28;2.97;;;22.30;68.90;;;;;;5111980;28;20019;-36
2023/09/16 10:04:57;;;;;;;4.05;2.95;;;22.40;68.80;;;;;;5112163;28;20015;-36
2023/09/16 10:07:25;;;;;;;3.30;3.00;;;22.40;68.70;;;;;;5112280;28;20015;-37
2023/09/16 10:09:50;;;;;;;3.42;2.58;;;22.50;68.60;;;;;;5112293;28;20377;-34
2023/09/16 10:12:16;;;;;;;3.25;2.55;;;22.60;68.40;;;;;;5093508;28;20281;-36
2023/09/16 10:14:42;;;;;;;4.07;2.85;;;22.60;68.20;;;;;;5112240;28;20043;-36
2023/09/16 10:17:07;;;;;;;2.50;2.30;;;22.70;67.90;;;;;;5111981;28;20019;-35
2023/09/16 10:19:33;;;;;;;2.80;2.20;;;22.80;67.70;;;;;;5111822;28;20034;-38
2023/09/16 10:21:59;;;;;;;3.38;2.58;;;22.80;67.40;;;;;;5093417;28;20019;-36
2023/09/16 10:24:26;;;;;;;3.10;2.65;;;22.90;67.10;;;;;;5111732;28;20027;-37
2023/09/16 10:26:54;;;;;;;3.40;2.22;;;23.00;66.80;;;;;;5111844;28;20028;-35
2023/09/16 10:29:20;;;;;;;3.88;2.42;;;23.00;66.40;;;;;;5111756;28;20026;-35
2023/09/16 10:31:47;;;;;;;3.50;2.00;;;23.10;66.20;;;;;;5111527;28;20039;-35
2023/09/16 10:34:13;;;;;;;2.85;2.47;;;23.20;65.90;;;;;;5111911;28;20136;-37
2023/09/16 10:36:39;;;;;;;2.95;1.90;;;23.20;65.40;;;;;;5112017;28;20041;-39
2023/09/16 10:39:05;;;;;;;2.83;2.20;;;23.20;65.40;;;;;;5111717;28;20043;-36
2023/09/16 10:41:33;;;;;;;2.72;2.13;;;23.30;65.20;;;;;;5115538;28;20511;-37
2023/09/16 10:43:58;;;;;;;4.47;2.53;;;23.40;65.10;;;;;;5098053;28;20461;-36
2023/09/16 10:46:25;;;;;;;2.78;2.25;;;23.40;64.70;;;;;;5114970;28;20092;-38
2023/09/16 10:48:51;;;;;;;2.28;1.90;;;23.50;64.60;;;;;;5116122;28;20019;-36
2023/09/16 10:51:22;;;;;;;2.97;1.80;;;23.60;64.30;;;;;;5115701;28;20039;-35
2023/09/16 10:53:57;;;;;;;2.33;2.13;;;23.70;63.90;;;;;;5115492;28;20032;-35
2023/09/16 10:56:29;;;;;;;2.20;2.00;;;23.70;63.40;;;;;;5115807;28;20381;-40
2023/09/16 10:59:10;;;;;;;2.70;2.00;;;23.80;63.10;;;;;;5115912;28;20377;-35
2023/09/16 11:01:47;;;;;;;2.30;1.90;;;23.80;62.90;;;;;;5115572;28;20046;-36
2023/09/16 11:04:16;;;;;;;2.08;1.70;;;23.80;62.40;;;;;;5115271;28;20035;-36
2023/09/16 11:06:43;;;;;;;2.60;2.03;;;23.90;62.00;;;;;;5115712;28;20175;-37
2023/09/16 11:09:09;;;;;;;1.90;1.80;;;23.90;61.60;;;;;;5115323;28;20024;-34
2023/09/16 11:11:36;;;;;;;1.70;1.60;;;24.00;61.40;;;;;;5115493;28;20063;-42
2023/09/16 11:14:04;;;;;;;2.47;2.15;;;24.10;61.40;;;;;;5115030;28;20035;-37
2023/09/16 11:16:45;;;;;;;3.08;2.00;;;24.10;61.20;;;;;;5115469;28;20011;-36
2023/09/16 11:19:14;;;;;;;2.47;1.70;;;24.20;61.00;;;;;;5115333;28;20098;-35
2023/09/16 11:21:41;;;;;;;2.10;1.80;;;24.20;61.00;;;;;;5115055;28;20031;-37
2023/09/16 11:24:07;;;;;;;2.05;1.85;;;24.30;60.80;;;;;;5115189;28;20492;-36
2023/09/16 11:26:37;;;;;;;2.47;1.98;;;24.30;60.50;;;;;;5115102;28;20077;-36
2023/09/16 11:29:16;;;;;;;2.38;1.90;;;24.30;60.30;;;;;;5114917;28;20028;-38
2023/09/16 11:31:41;;;;;;;1.73;1.63;;;24.50;60.10;;;;;;5096375;28;20485;-36
2023/09/16 11:34:07;;;;;;;3.10;1.65;;;24.50;60.20;;;;;;5115248;28;20020;-37
2023/09/16 11:36:34;;;;;;;2.08;1.83;;;24.60;60.10;;;;;;5114965;28;20016;-36
2023/09/16 11:39:06;;;;;;;2.47;1.73;;;24.70;59.90;;;;;;5114813;28;20016;-37
2023/09/16 11:41:31;;;;;;;1.60;1.50;;;24.70;59.90;;;;;;5114752;28;20020;-37
2023/09/16 11:43:57;;;;;;;1.95;1.80;;;24.80;59.70;;;;;;5096331;28;20030;-37
2023/09/16 11:46:25;;;;;;;2.83;2.38;;;24.90;59.30;;;;;;5096241;28;20117;-36
2023/09/16 11:48:51;;;;;;;2.20;2.00;;;24.90;59.10;;;;;;5114418;28;20499;-35
2023/09/16 11:51:18;;;;;;;2.22;2.03;;;24.80;59.10;;;;;;5114489;28;20020;-37
2023/09/16 11:53:45;;;;;;;2.40;2.20;;;24.80;59.00;;;;;;5114608;28;20098;-39
2023/09/16 11:56:11;;;;;;;2.80;2.50;;;24.90;59.10;;;;;;5114709;28;20411;-37
2023/09/16 11:58:37;;;;;;;4.00;2.38;;;24.90;59.10;;;;;;5114453;28;20075;-36
2023/09/16 12:01:03;;;;;;;2.25;2.05;;;24.90;59.40;;;;;;5095740;28;20393;-39
2023/09/16 12:03:29;;;;;;;5.47;2.30;;;24.90;59.50;;;;;;5114547;28;20052;-38
2023/09/16 12:05:55;;;;;;;2.45;2.25;;;24.90;59.50;;;;;;5114280;28;20027;-39
2023/09/16 12:08:23;;;;;;;2.83;2.28;;;24.90;59.70;;;;;;5114310;28;20035;-35
2023/09/16 12:10:49;;;;;;;2.63;2.35;;;24.90;59.70;;;;;;5113869;28;20431;-36
2023/09/16 12:13:26;;;;;;;2.65;2.17;;;24.90;59.50;;;;;;5114001;28;20020;-36
2023/09/16 12:15:52;;;;;;;3.13;2.00;;;24.90;59.70;;;;;;5114000;28;20034;-36
2023/09/16 12:18:18;;;;;;;2.58;2.15;;;24.90;59.90;;;;;;5113892;28;20028;-36
2023/09/16 12:20:44;;;;;;;2.20;2.00;;;25.00;60.00;;;;;;5113892;28;20027;-36
2023/09/16 12:23:10;;;;;;;2.90;2.58;;;25.10;59.80;;;;;;5113729;28;20068;-36
2023/09/16 12:25:40;;;;;;;2.53;2.10;;;25.10;59.70;;;;;;5114087;28;20043;-36
2023/09/16 12:28:05;;;;;;;2.28;2.00;;;25.20;59.70;;;;;;5113499;28;20042;-34
2023/09/16 12:30:31;;;;;;;3.45;2.20;;;25.20;59.70;;;;;;5113570;28;20118;-37
2023/09/16 12:32:57;;;;;;;2.40;2.20;;;25.20;59.70;;;;;;5113802;28;20016;-36
2023/09/16 12:35:23;;;;;;;2.95;1.98;;;25.40;59.80;;;;;;5113382;28;20106;-36
2023/09/16 12:37:48;;;;;;;2.10;1.90;;;25.40;59.70;;;;;;5113569;28;20039;-35
2023/09/16 12:40:14;;;;;;;2.28;2.08;;;25.50;60.20;;;;;;5113451;28;20026;-37
2023/09/16 12:42:40;;;;;;;2.60;2.40;;;25.60;59.60;;;;;;5113522;28;20023;-36